USCC Airport Information

Runway Information
Runway 09 Length 10499 ft width 197 ft
Elevation 759 ft Threshold 0 ft Heading 104
Runway 27 Length 10499 ft Width 197 ft
Elevation 737 ft Threshold 0 ft Heading 284
Airport Frequencies
Type APP Name CHELYABINS Frequency 124.7 MHZ
Type PMSV Name CHELYABINS Frequency 128.3 MHZ
Type TWR Name CHELYABINS Frequency 125.2 MHZ
Airport Navaids
Type NDB Name Gorevoye Frequency 106 KHZ
Type NDB Name Chelyabinsk Frequency 412 KHZ
Type NDB Name Chelyabinsk Frequency 452 KHZ
Type VOR-DME Name Chelyabinsk Frequency 113300 KHZ
Airport Weather Information & NOTAM
ADDS - METARS form results

(2257 UTC 01 June 2020)
Data provider http://aviationweather.gov/metar/data/
 
METAR text: USCC 012230Z 26004MPS 9999 SCT040CB 12/10 Q1011 R27/000060 NOSIG RMK QFE738
Conditions at: USCC (CHELYABINSK-BALA, RU) observed 2230 UTC 01 June 2020
Temperature: 12.0°C (54°F)
Dewpoint: 10.0°C (50°F) [RH = 88%]
Pressure (altimeter): 29.85 inches Hg (1011.0 mb)
Winds: from the W (260 degrees) at 9 MPH (8 knots; 4.1 m/s)
Visibility: 6 or more miles (10+ km)
Ceiling: at least 12,000 feet AGL
Clouds: scattered clouds at 4000 feet AGL
Weather: no significant weather observed at this time

METAR text: USCC 012200Z 27004MPS 9999 SCT040CB 10/09 Q1011 R27/000060 NOSIG RMK QFE738
Conditions at: USCC (CHELYABINSK-BALA, RU) observed 2200 UTC 01 June 2020
Temperature: 10.0°C (50°F)
Dewpoint: 9.0°C (48°F) [RH = 93%]
Pressure (altimeter): 29.85 inches Hg (1011.0 mb)
Winds: from the W (270 degrees) at 9 MPH (8 knots; 4.1 m/s)
Visibility: 6 or more miles (10+ km)
Ceiling: at least 12,000 feet AGL
Clouds: scattered clouds at 4000 feet AGL
Weather: no significant weather observed at this time

Forecast for: USCC (CHELYABINSK-BALA, RU)
Text: TAF USCC 012000Z 0121/0221 27003G08MPS 9999 SCT030CB
Forecast period: 2100 UTC 01 June 2020 to 0400 UTC 02 June 2020
Forecast type: FROM: standard forecast or significant change
Winds: from the W (270 degrees) at 7 MPH (6 knots; 3.1 m/s)
gusting to 18 MPH (16 knots; 8.2 m/s)
Visibility: 6 or more miles 10+ km)
Ceiling: at least 12,000 feet AGL
Clouds: scattered clouds at 3000 feet AGL
Weather: no significant weather forecast for this period
Text: TEMPO 0121/0204 -SHRA BKN020CB
Forecast period: 2100 UTC 01 June 2020 to 0400 UTC 02 June 2020
Forecast type: TEMPORARY: The following changes expected for less than half the time period
Visibility: missing
Ceiling: 2000 feet AGL
Clouds: broken clouds at 2000 feet AGL
Weather: -SHRA  (light rain showers)
Text: FM020400 02003G10MPS 9999 SCT040
Forecast period: 0400 to 2100 UTC 02 June 2020
Forecast type: FROM: standard forecast or significant change
Winds: from the NNE (20 degrees) at 7 MPH (6 knots; 3.1 m/s)
gusting to 22 MPH (19 knots; 9.8 m/s)
Visibility: 6 or more miles 10+ km)
Ceiling: at least 12,000 feet AGL
Clouds: scattered clouds at 4000 feet AGL
Weather: no significant weather forecast for this period